Time;durP1;ratioP1;P1;durP2;ratioP2;P2;SDS_P1;SDS_P2;PMS_P1;PMS_P2;Temp;Humidity;BMP_temperature;BMP_pressure;BME280_temperature;BME280_humidity;BME280_pressure;Samples;Min_cycle;Max_cycle;Signal;HPM_P1;HPM_P2
2022/08/14 00:01:08;;;;;;;2.60;1.95;;;26.80;1.00;;;;;;5108830;28;20035;-55
2022/08/14 00:03:34;;;;;;;3.88;2.58;;;26.70;1.00;;;;;;5110032;28;20027;-55
2022/08/14 00:06:02;;;;;;;2.70;2.20;;;26.70;1.00;;;;;;5115654;28;20530;-54
2022/08/14 00:08:28;;;;;;;2.75;2.50;;;26.70;1.00;;;;;;5116030;28;20126;-55
2022/08/14 00:10:54;;;;;;;2.60;2.40;;;26.70;1.00;;;;;;5115711;28;20023;-54
2022/08/14 00:13:23;;;;;;;2.50;2.30;;;26.70;1.00;;;;;;5116034;28;20027;-53
2022/08/14 00:15:50;;;;;;;3.50;2.42;;;26.60;1.00;;;;;;5115250;28;20034;-55
2022/08/14 00:18:21;;;;;;;2.10;2.00;;;26.60;1.00;;;;;;5116178;28;20042;-55
2022/08/14 00:20:48;;;;;;;2.38;2.17;;;26.60;1.00;;;;;;5115399;28;20015;-55
2022/08/14 00:23:15;;;;;;;2.38;2.17;;;26.60;1.00;;;;;;5115104;28;20102;-53
2022/08/14 00:25:43;;;;;;;2.80;2.53;;;26.60;1.00;;;;;;5107941;28;20046;-56
2022/08/14 00:28:11;;;;;;;2.72;2.45;;;26.60;1.00;;;;;;5114773;28;20445;-56
2022/08/14 00:30:37;;;;;;;3.47;2.70;;;26.60;1.00;;;;;;5114707;28;20020;-55
2022/08/14 00:33:03;;;;;;;3.58;2.55;;;26.60;1.00;;;;;;5115685;28;20107;-56
2022/08/14 00:35:30;;;;;;;3.30;2.45;;;26.60;1.00;;;;;;5114827;28;20034;-54
2022/08/14 00:37:55;;;;;;;3.13;2.33;;;26.50;1.00;;;;;;5096992;28;20431;-57
2022/08/14 00:40:21;;;;;;;3.13;2.15;;;26.50;1.00;;;;;;5114495;28;20103;-54
2022/08/14 00:42:48;;;;;;;2.55;2.35;;;26.50;1.00;;;;;;5115474;28;20027;-53
2022/08/14 00:45:14;;;;;;;2.88;2.30;;;26.50;1.00;;;;;;5114378;28;20044;-55
2022/08/14 00:47:42;;;;;;;2.83;2.58;;;26.40;1.00;;;;;;5114846;28;20051;-56
2022/08/14 00:50:11;;;;;;;3.22;2.42;;;26.40;1.00;;;;;;5112197;28;20016;-55
2022/08/14 00:52:37;;;;;;;4.40;2.40;;;26.40;1.00;;;;;;5115293;28;20552;-56
2022/08/14 00:55:06;;;;;;;3.13;2.35;;;26.40;1.00;;;;;;5114513;28;20086;-53
2022/08/14 00:57:34;;;;;;;3.47;2.45;;;26.30;1.00;;;;;;5115440;28;20041;-54
2022/08/14 01:00:02;;;;;;;2.20;2.00;;;26.30;1.00;;;;;;5114161;28;20024;-54
2022/08/14 01:02:29;;;;;;;3.53;2.45;;;26.30;1.00;;;;;;5103534;28;20059;-53
2022/08/14 01:04:57;;;;;;;3.00;2.47;;;26.30;1.00;;;;;;5114983;28;20062;-54
2022/08/14 01:07:24;;;;;;;3.53;2.53;;;26.30;1.00;;;;;;5112545;28;20074;-53
2022/08/14 01:09:53;;;;;;;3.42;2.30;;;26.30;1.00;;;;;;5108004;28;20028;-54
2022/08/14 01:12:20;;;;;;;4.95;2.63;;;26.30;1.00;;;;;;5112642;28;20038;-56
2022/08/14 01:14:50;;;;;;;2.30;2.10;;;26.20;1.00;;;;;;5110722;28;20035;-52
2022/08/14 01:17:16;;;;;;;2.83;2.55;;;26.30;1.00;;;;;;5099625;28;20020;-55
2022/08/14 01:22:26;;;;;;;3.17;2.50;;;26.20;1.00;;;;;;5113374;28;20073;-55
2022/08/14 01:24:52;;;;;;;3.70;2.42;;;26.10;1.00;;;;;;5114047;28;20532;-53
2022/08/14 01:27:20;;;;;;;3.08;2.10;;;26.10;1.00;;;;;;5113134;28;20038;-54
2022/08/14 01:29:49;;;;;;;3.53;2.40;;;26.00;1.00;;;;;;5113822;28;20081;-55
2022/08/14 01:32:17;;;;;;;2.60;2.40;;;26.00;1.00;;;;;;5094479;28;20465;-52
2022/08/14 01:34:43;;;;;;;6.10;2.30;;;26.10;1.00;;;;;;5113921;28;20538;-53
2022/08/14 01:37:09;;;;;;;3.72;2.53;;;26.00;1.00;;;;;;5112144;28;20456;-54
2022/08/14 01:39:35;;;;;;;2.65;1.85;;;26.00;1.00;;;;;;5113726;28;20023;-53
2022/08/14 01:42:01;;;;;;;2.67;2.00;;;26.00;1.00;;;;;;5112667;28;20027;-56
2022/08/14 01:44:30;;;;;;;2.88;2.22;;;26.00;1.00;;;;;;5113453;28;20047;-51
2022/08/14 01:46:58;;;;;;;3.63;2.92;;;26.00;1.00;;;;;;5112830;28;20401;-50
2022/08/14 01:49:24;;;;;;;3.15;2.30;;;26.00;1.00;;;;;;5094324;28;20038;-55
2022/08/14 01:51:55;;;;;;;5.50;2.10;;;25.90;1.00;;;;;;5112702;28;20028;-55
2022/08/14 01:54:22;;;;;;;3.00;2.17;;;25.80;1.00;;;;;;5113347;28;20020;-52
2022/08/14 01:56:51;;;;;;;3.00;2.15;;;25.90;1.00;;;;;;5112685;28;20024;-55
2022/08/14 01:59:16;;;;;;;2.05;1.83;;;25.90;1.00;;;;;;5113390;28;20034;-51
2022/08/14 02:01:42;;;;;;;2.75;2.15;;;25.90;1.00;;;;;;5111732;28;20027;-53
2022/08/14 02:04:08;;;;;;;2.92;2.70;;;25.90;1.00;;;;;;5113100;28;20115;-52
2022/08/14 02:06:38;;;;;;;4.53;2.40;;;25.80;1.00;;;;;;5112327;28;20036;-55
2022/08/14 02:09:06;;;;;;;2.65;2.35;;;25.70;1.00;;;;;;5113090;28;20110;-53
2022/08/14 02:11:34;;;;;;;3.95;2.05;;;25.70;1.00;;;;;;5112507;28;20019;-53
2022/08/14 02:14:09;;;;;;;3.17;2.15;;;25.70;1.00;;;;;;5113019;28;20497;-56
2022/08/14 02:16:38;;;;;;;2.78;2.10;;;25.70;1.00;;;;;;5109722;28;20364;-55
2022/08/14 02:19:07;;;;;;;2.08;1.88;;;25.60;1.00;;;;;;5110689;28;20031;-55
2022/08/14 02:21:34;;;;;;;3.65;1.63;;;25.60;1.00;;;;;;5104151;28;20035;-56
2022/08/14 02:24:01;;;;;;;3.22;2.20;;;25.50;1.00;;;;;;5098220;28;20026;-56
2022/08/14 02:26:29;;;;;;;2.03;1.70;;;25.50;1.00;;;;;;5098156;28;20035;-54
2022/08/14 02:28:59;;;;;;;2.50;2.30;;;25.50;1.00;;;;;;5113396;28;20079;-56
2022/08/14 02:31:31;;;;;;;2.35;2.03;;;25.50;1.00;;;;;;5112841;28;20160;-54
2022/08/14 02:34:09;;;;;;;2.13;2.03;;;25.40;1.00;;;;;;5113325;28;20510;-56
2022/08/14 02:36:39;;;;;;;4.57;2.08;;;25.50;1.00;;;;;;5112322;28;20388;-56
2022/08/14 02:39:06;;;;;;;2.50;2.00;;;25.40;1.00;;;;;;5112968;28;20080;-53
2022/08/14 02:41:34;;;;;;;2.90;2.08;;;25.50;1.00;;;;;;5112263;28;20073;-57
2022/08/14 02:44:01;;;;;;;3.10;2.17;;;25.50;1.00;;;;;;5112917;28;20127;-56
2022/08/14 02:46:26;;;;;;;3.63;2.50;;;25.40;1.00;;;;;;5093941;28;20254;-55
2022/08/14 02:48:53;;;;;;;3.63;1.90;;;25.40;1.00;;;;;;5113068;28;20062;-53
2022/08/14 02:51:18;;;;;;;2.40;2.20;;;25.40;1.00;;;;;;5112166;28;20128;-53
2022/08/14 02:53:45;;;;;;;2.15;2.05;;;25.40;1.00;;;;;;5112979;28;20023;-56
2022/08/14 02:56:14;;;;;;;4.05;1.92;;;25.40;1.00;;;;;;5093685;28;20025;-56
2022/08/14 02:58:45;;;;;;;3.78;2.05;;;25.40;1.00;;;;;;5104083;28;20030;-50
2022/08/14 03:01:11;;;;;;;3.05;2.20;;;25.30;1.00;;;;;;5111370;28;20020;-56
2022/08/14 03:03:37;;;;;;;2.45;2.10;;;25.30;1.00;;;;;;5112601;28;20028;-50
2022/08/14 03:06:04;;;;;;;2.63;1.88;;;25.30;1.00;;;;;;5112532;28;20114;-55
2022/08/14 03:08:33;;;;;;;2.05;1.85;;;25.10;1.00;;;;;;5111937;28;20411;-54
2022/08/14 03:11:06;;;;;;;2.33;2.13;;;25.20;1.00;;;;;;5112542;28;20031;-56
2022/08/14 03:13:38;;;;;;;2.65;2.00;;;25.20;1.00;;;;;;5111806;28;20061;-55
2022/08/14 03:16:05;;;;;;;2.10;2.00;;;25.20;1.00;;;;;;5077035;28;20472;-51
2022/08/14 03:18:31;;;;;;;2.17;2.00;;;25.20;1.00;;;;;;5093084;28;20507;-55
2022/08/14 03:21:02;;;;;;;2.75;2.28;;;25.00;1.00;;;;;;5112542;28;20023;-55
2022/08/14 03:23:32;;;;;;;4.78;2.45;;;25.10;1.00;;;;;;5111613;28;20028;-55
2022/08/14 03:25:58;;;;;;;2.70;2.30;;;25.10;1.00;;;;;;5110971;28;20032;-55
2022/08/14 03:28:28;;;;;;;2.97;2.00;;;25.10;1.00;;;;;;5111741;28;20027;-52
2022/08/14 03:30:54;;;;;;;2.08;1.90;;;25.10;1.00;;;;;;5112401;28;20030;-54
2022/08/14 03:33:20;;;;;;;2.55;2.10;;;25.10;1.00;;;;;;5111558;28;20027;-56
2022/08/14 03:35:45;;;;;;;2.90;1.90;;;24.90;1.00;;;;;;5112183;28;20030;-54
2022/08/14 03:38:12;;;;;;;3.28;1.92;;;25.00;1.00;;;;;;5111078;28;20115;-57
2022/08/14 03:40:39;;;;;;;3.40;1.98;;;25.00;1.00;;;;;;5097705;28;20486;-55
2022/08/14 03:43:09;;;;;;;2.42;2.08;;;24.90;1.00;;;;;;5111460;28;20032;-54
2022/08/14 03:45:36;;;;;;;3.08;2.45;;;24.90;1.00;;;;;;5112125;28;20570;-57
2022/08/14 03:48:09;;;;;;;2.65;2.45;;;24.90;1.00;;;;;;5100271;28;20054;-55
2022/08/14 03:50:34;;;;;;;2.25;2.10;;;24.90;1.00;;;;;;5093171;28;20391;-54
2022/08/14 03:53:01;;;;;;;2.53;2.13;;;24.80;1.00;;;;;;5108680;28;20133;-54
2022/08/14 03:55:28;;;;;;;2.10;2.00;;;24.80;1.00;;;;;;5108562;28;20036;-55
2022/08/14 03:57:54;;;;;;;2.60;2.00;;;24.80;1.00;;;;;;5112120;28;20072;-55
2022/08/14 04:00:20;;;;;;;3.03;2.08;;;24.80;1.00;;;;;;5111370;28;20028;-56
2022/08/14 04:02:48;;;;;;;4.05;2.38;;;24.80;1.00;;;;;;5112176;28;20035;-56
2022/08/14 04:05:14;;;;;;;4.13;2.33;;;24.80;1.00;;;;;;5111305;28;20081;-56
2022/08/14 04:07:40;;;;;;;2.63;2.10;;;24.80;1.00;;;;;;5112073;28;20358;-56
2022/08/14 04:10:07;;;;;;;4.15;2.22;;;24.80;1.00;;;;;;5111283;28;20039;-56
2022/08/14 04:12:32;;;;;;;2.30;2.10;;;24.70;1.00;;;;;;5112180;28;20030;-56
2022/08/14 04:14:58;;;;;;;3.97;2.05;;;24.80;1.00;;;;;;5110416;28;20091;-56
2022/08/14 04:17:25;;;;;;;2.30;2.08;;;24.80;1.00;;;;;;5110567;28;20058;-55
2022/08/14 04:19:50;;;;;;;2.53;2.00;;;24.80;1.00;;;;;;5110019;28;20035;-56
2022/08/14 04:22:16;;;;;;;1.83;1.73;;;24.80;1.00;;;;;;5112190;28;20123;-56
2022/08/14 04:24:42;;;;;;;3.70;2.22;;;24.80;1.00;;;;;;5111245;28;20387;-56
2022/08/14 04:27:10;;;;;;;2.42;2.15;;;24.80;1.00;;;;;;5110499;28;20485;-56
2022/08/14 04:29:41;;;;;;;3.38;2.50;;;24.80;1.00;;;;;;5105534;28;20020;-55
2022/08/14 04:32:08;;;;;;;2.30;2.05;;;24.80;1.00;;;;;;5111816;28;20031;-55
2022/08/14 04:34:38;;;;;;;2.80;2.33;;;24.70;1.00;;;;;;5110236;28;20019;-55
2022/08/14 04:45:22;;;;;;;2.75;2.05;;;24.80;1.00;;;;;;5110627;28;20070;-54
2022/08/14 04:50:34;;;;;;;2.50;2.30;;;24.80;1.00;;;;;;5105136;28;20085;-56
2022/08/14 04:53:02;;;;;;;3.33;2.10;;;24.70;1.00;;;;;;5094610;28;20053;-52
2022/08/14 04:55:28;;;;;;;3.45;2.22;;;24.70;1.00;;;;;;5095838;28;20440;-56
2022/08/14 04:57:55;;;;;;;5.10;2.50;;;24.80;1.00;;;;;;5115330;28;20019;-55
2022/08/14 05:00:21;;;;;;;3.58;2.20;;;24.80;1.00;;;;;;5114310;28;20035;-56
2022/08/14 05:02:48;;;;;;;2.25;2.00;;;24.80;1.00;;;;;;5115957;28;20036;-55
2022/08/14 05:05:13;;;;;;;2.30;2.13;;;24.80;1.00;;;;;;5114255;28;20038;-55
2022/08/14 05:07:41;;;;;;;3.40;2.33;;;24.80;1.00;;;;;;5115020;28;20016;-57
2022/08/14 05:10:07;;;;;;;2.28;2.03;;;24.80;1.00;;;;;;5114257;28;20066;-55
2022/08/14 05:12:33;;;;;;;3.22;2.67;;;24.80;1.00;;;;;;5096677;28;20086;-56
2022/08/14 05:14:58;;;;;;;3.45;2.00;;;24.90;1.00;;;;;;5113671;28;20035;-55
2022/08/14 05:17:26;;;;;;;2.22;2.03;;;24.80;1.00;;;;;;5114742;28;20023;-57
2022/08/14 05:19:52;;;;;;;4.05;1.92;;;24.80;1.00;;;;;;5113395;28;20020;-54
2022/08/14 05:22:18;;;;;;;3.85;2.47;;;24.80;1.00;;;;;;5114741;28;20027;-55
2022/08/14 05:24:48;;;;;;;3.28;2.40;;;24.80;1.00;;;;;;5095825;28;20019;-57
2022/08/14 05:27:14;;;;;;;3.83;2.15;;;24.80;1.00;;;;;;5109957;28;20028;-54
2022/08/14 05:29:43;;;;;;;3.28;2.60;;;24.80;1.00;;;;;;5114918;28;20101;-55
2022/08/14 05:32:09;;;;;;;3.15;2.35;;;24.80;1.00;;;;;;5113928;28;20027;-55
2022/08/14 05:34:35;;;;;;;3.03;2.20;;;24.80;1.00;;;;;;5114564;28;20051;-54
2022/08/14 05:37:02;;;;;;;2.60;2.00;;;24.80;1.00;;;;;;5099672;28;20057;-57
2022/08/14 05:39:28;;;;;;;2.38;2.15;;;24.80;1.00;;;;;;5114427;28;20085;-57
2022/08/14 05:41:55;;;;;;;5.10;2.15;;;24.80;1.00;;;;;;5113501;28;20058;-56
2022/08/14 05:44:21;;;;;;;2.13;2.03;;;24.80;1.00;;;;;;5113283;28;20028;-54
2022/08/14 05:46:47;;;;;;;2.60;2.22;;;24.80;1.00;;;;;;5113487;28;20039;-56
2022/08/14 05:49:13;;;;;;;3.35;2.10;;;24.80;1.00;;;;;;5114170;28;20479;-56
2022/08/14 05:51:40;;;;;;;3.58;2.13;;;24.80;1.00;;;;;;5099781;28;20043;-56
2022/08/14 05:54:05;;;;;;;2.38;2.10;;;24.80;1.00;;;;;;5101331;28;20466;-56
2022/08/14 05:56:31;;;;;;;2.50;2.30;;;24.90;1.00;;;;;;5113099;28;20127;-54
2022/08/14 05:58:58;;;;;;;2.65;2.20;;;24.90;1.00;;;;;;5105010;28;20033;-53
2022/08/14 06:01:23;;;;;;;3.88;2.50;;;24.90;1.00;;;;;;5107332;28;20051;-55
2022/08/14 06:03:49;;;;;;;3.03;2.10;;;24.90;1.00;;;;;;5114071;28;20413;-55
2022/08/14 06:06:17;;;;;;;4.60;2.30;;;25.00;1.00;;;;;;5113151;28;20032;-55
2022/08/14 06:08:43;;;;;;;3.15;2.20;;;24.90;1.00;;;;;;5112774;28;20031;-55
2022/08/14 06:11:09;;;;;;;2.53;2.33;;;24.90;1.00;;;;;;5113417;28;20032;-57
2022/08/14 06:13:39;;;;;;;2.53;2.20;;;24.90;1.00;;;;;;5113937;28;20072;-55
2022/08/14 06:16:06;;;;;;;3.33;2.15;;;24.90;1.00;;;;;;5112865;28;20425;-54
2022/08/14 06:18:32;;;;;;;3.40;2.70;;;24.90;1.00;;;;;;5113666;28;20023;-52
2022/08/14 06:20:58;;;;;;;3.25;2.85;;;24.90;1.00;;;;;;5112704;28;20235;-57
2022/08/14 06:23:24;;;;;;;2.63;2.25;;;24.90;1.00;;;;;;5113706;28;20106;-55
2022/08/14 06:25:49;;;;;;;4.03;2.80;;;24.80;1.00;;;;;;5094588;28;20448;-55
2022/08/14 06:28:20;;;;;;;3.15;2.83;;;24.90;1.00;;;;;;5113450;28;20104;-53
2022/08/14 06:30:46;;;;;;;4.25;2.70;;;25.00;1.00;;;;;;5094761;28;20020;-53
2022/08/14 06:33:13;;;;;;;5.05;2.55;;;25.00;1.00;;;;;;5094270;28;20028;-54
2022/08/14 06:35:39;;;;;;;2.40;2.20;;;24.90;1.00;;;;;;5112455;28;20032;-57
2022/08/14 06:38:05;;;;;;;4.78;2.80;;;24.90;1.00;;;;;;5113359;28;20103;-56
2022/08/14 06:40:33;;;;;;;2.80;2.60;;;25.00;1.00;;;;;;5112208;28;20131;-55
2022/08/14 06:43:04;;;;;;;4.50;2.72;;;25.00;1.00;;;;;;5113478;28;20098;-56
2022/08/14 06:45:31;;;;;;;2.25;1.90;;;25.00;1.00;;;;;;5111910;28;20143;-56
2022/08/14 06:47:59;;;;;;;2.63;2.42;;;25.00;1.00;;;;;;5112921;28;20024;-56
2022/08/14 06:50:26;;;;;;;4.10;2.72;;;25.00;1.00;;;;;;5110805;28;20027;-56
2022/08/14 06:52:52;;;;;;;3.33;2.47;;;25.00;1.00;;;;;;5108821;28;20131;-55
2022/08/14 06:55:18;;;;;;;2.55;2.35;;;25.00;1.00;;;;;;5112907;28;20062;-56
2022/08/14 06:57:47;;;;;;;2.83;2.50;;;25.10;1.00;;;;;;5093960;28;20039;-55
2022/08/14 07:00:19;;;;;;;5.57;2.80;;;25.10;1.00;;;;;;5112870;28;20037;-57
2022/08/14 07:05:45;;;;;;;4.47;3.00;;;25.10;1.00;;;;;;5113269;28;20093;-54
2022/08/14 07:08:19;;;;;;;3.30;2.55;;;25.10;1.00;;;;;;5111985;28;20055;-56
2022/08/14 07:10:46;;;;;;;2.70;2.40;;;25.10;1.00;;;;;;5112178;28;20023;-56
2022/08/14 07:13:13;;;;;;;4.28;2.80;;;25.10;1.00;;;;;;5105234;28;20031;-54
2022/08/14 07:15:44;;;;;;;2.53;2.28;;;25.10;1.00;;;;;;5111781;28;20026;-54
2022/08/14 07:18:11;;;;;;;3.38;2.95;;;25.10;1.00;;;;;;5111641;28;20057;-56
2022/08/14 07:20:37;;;;;;;3.58;2.40;;;25.20;1.00;;;;;;5112569;28;20089;-52
2022/08/14 07:23:05;;;;;;;4.30;2.95;;;25.20;1.00;;;;;;5093127;28;20055;-56
2022/08/14 07:25:31;;;;;;;3.65;2.50;;;25.30;1.00;;;;;;5112258;28;20020;-55
2022/08/14 07:27:57;;;;;;;4.35;2.78;;;25.30;1.00;;;;;;5093883;28;20039;-56
2022/08/14 07:30:23;;;;;;;4.43;2.58;;;25.30;1.00;;;;;;5112319;28;20047;-56
2022/08/14 07:32:50;;;;;;;2.90;2.70;;;25.30;1.00;;;;;;5111495;28;20110;-54
2022/08/14 07:35:15;;;;;;;3.47;2.53;;;25.30;1.00;;;;;;5111316;28;20516;-55
2022/08/14 07:37:41;;;;;;;3.00;2.30;;;25.30;1.00;;;;;;5111362;28;20059;-55
2022/08/14 07:40:07;;;;;;;4.28;2.60;;;25.40;1.00;;;;;;5112478;28;20361;-53
2022/08/14 07:42:33;;;;;;;2.50;2.30;;;25.40;1.00;;;;;;5111468;28;20058;-56
2022/08/14 07:44:59;;;;;;;4.38;3.05;;;25.50;1.00;;;;;;5112083;28;20361;-55
2022/08/14 07:47:25;;;;;;;3.95;3.00;;;25.50;1.00;;;;;;5111281;28;20038;-54
2022/08/14 07:49:58;;;;;;;3.85;3.50;;;25.50;1.00;;;;;;5112099;28;20028;-56
2022/08/14 07:52:24;;;;;;;3.53;3.22;;;25.60;1.00;;;;;;5111630;28;20065;-55
2022/08/14 07:54:49;;;;;;;4.75;3.47;;;25.60;1.00;;;;;;5112103;28;20051;-56
2022/08/14 07:57:16;;;;;;;3.88;3.58;;;25.60;1.00;;;;;;5112286;28;20027;-53
2022/08/14 07:59:42;;;;;;;4.32;3.35;;;25.60;1.00;;;;;;5096993;28;20509;-56
2022/08/14 08:02:10;;;;;;;3.78;3.20;;;25.60;1.00;;;;;;5110314;28;20016;-55
2022/08/14 08:04:42;;;;;;;3.40;3.17;;;25.70;1.00;;;;;;5111681;28;20059;-55
2022/08/14 08:07:08;;;;;;;4.18;3.83;;;25.80;1.00;;;;;;5111717;28;20140;-56
2022/08/14 08:09:35;;;;;;;4.20;3.80;;;25.80;1.00;;;;;;5111110;28;20463;-56
2022/08/14 08:12:04;;;;;;;4.13;3.47;;;25.80;1.00;;;;;;5112163;28;20047;-55
2022/08/14 08:14:35;;;;;;;4.35;3.83;;;25.90;1.00;;;;;;5110241;28;20022;-55
2022/08/14 08:17:00;;;;;;;5.10;4.70;;;26.00;1.00;;;;;;5112091;28;20038;-55
2022/08/14 08:19:26;;;;;;;5.15;4.43;;;26.00;1.00;;;;;;5110859;28;20110;-56
2022/08/14 08:21:53;;;;;;;5.90;4.47;;;26.00;1.00;;;;;;5111831;28;20427;-55
2022/08/14 08:24:19;;;;;;;4.20;3.70;;;26.00;1.00;;;;;;5110354;28;20573;-56
2022/08/14 08:26:44;;;;;;;6.57;5.00;;;26.10;1.00;;;;;;5114650;28;20118;-56
2022/08/14 08:29:18;;;;;;;5.38;4.85;;;26.10;1.00;;;;;;5114586;28;20019;-56
2022/08/14 08:31:51;;;;;;;10.25;5.07;;;26.10;1.00;;;;;;5115918;28;20051;-56
2022/08/14 08:34:18;;;;;;;4.97;4.30;;;26.00;1.00;;;;;;5115180;28;20027;-57
2022/08/14 08:36:44;;;;;;;4.95;4.55;;;26.20;1.00;;;;;;5114877;28;20108;-52
2022/08/14 08:39:11;;;;;;;3.38;3.15;;;26.20;1.00;;;;;;5114740;28;20078;-56
2022/08/14 08:41:45;;;;;;;5.30;4.80;;;26.30;1.00;;;;;;5115453;28;20047;-55
2022/08/14 08:44:12;;;;;;;4.80;3.60;;;26.40;1.00;;;;;;5096692;28;20051;-54
2022/08/14 08:46:38;;;;;;;6.78;3.50;;;26.50;1.00;;;;;;5115597;28;20056;-51
2022/08/14 08:49:05;;;;;;;4.13;3.30;;;26.50;1.00;;;;;;5114532;28;20024;-55
2022/08/14 08:51:34;;;;;;;5.50;3.72;;;26.60;1.00;;;;;;5114970;28;20086;-56
2022/08/14 08:54:14;;;;;;;4.05;3.75;;;26.60;1.00;;;;;;5113092;28;20023;-56
2022/08/14 08:56:43;;;;;;;3.72;3.42;;;26.70;1.00;;;;;;5115519;28;20116;-57
2022/08/14 08:59:27;;;;;;;8.43;3.90;;;26.80;1.00;;;;;;5114416;28;20027;-57
2022/08/14 09:02:01;;;;;;;3.55;3.30;;;26.80;1.00;;;;;;5102376;28;20015;-56
2022/08/14 09:04:29;;;;;;;3.97;3.58;;;26.80;1.00;;;;;;5114426;28;20031;-56
2022/08/14 09:06:56;;;;;;;4.60;4.20;;;26.90;1.00;;;;;;5115133;28;20205;-56
2022/08/14 09:09:23;;;;;;;3.88;3.47;;;27.00;1.00;;;;;;5111285;28;20020;-57
2022/08/14 09:11:52;;;;;;;3.60;3.10;;;27.00;1.00;;;;;;5096476;28;20540;-56
2022/08/14 09:14:18;;;;;;;5.55;3.20;;;27.10;1.00;;;;;;5114064;28;20497;-54
2022/08/14 09:16:44;;;;;;;3.75;2.83;;;27.20;1.00;;;;;;5114135;28;20035;-56
2022/08/14 09:19:10;;;;;;;3.75;2.92;;;27.30;1.00;;;;;;5114418;28;20020;-56
2022/08/14 09:21:38;;;;;;;3.45;3.15;;;27.30;1.00;;;;;;5100964;28;20036;-58
2022/08/14 09:24:06;;;;;;;3.85;3.25;;;27.30;1.00;;;;;;5114195;28;20039;-56
2022/08/14 09:26:32;;;;;;;6.38;3.28;;;27.50;1.00;;;;;;5114651;28;20027;-56
2022/08/14 09:28:58;;;;;;;4.07;3.53;;;27.50;1.00;;;;;;5100686;28;20537;-56
2022/08/14 09:31:25;;;;;;;4.63;3.40;;;27.60;1.00;;;;;;5084163;28;20501;-57
2022/08/14 09:34:20;;;;;;;4.68;3.20;;;27.60;1.00;;;;;;5112083;28;20024;-56
2022/08/14 09:37:38;;;;;;;4.47;3.55;;;27.80;1.00;;;;;;5098711;28;20135;-56
2022/08/14 09:40:13;;;;;;;4.13;3.63;;;27.80;1.00;;;;;;5055127;28;20059;-56
2022/08/14 09:43:13;;;;;;;3.50;3.20;;;27.90;1.00;;;;;;5082966;28;20354;-55
2022/08/14 09:45:45;;;;;;;4.70;4.10;;;27.90;1.00;;;;;;5114110;28;20047;-56
2022/08/14 09:48:17;;;;;;;4.65;3.83;;;28.00;1.00;;;;;;5113918;28;20027;-57
2022/08/14 09:50:52;;;;;;;4.90;4.43;;;28.10;1.00;;;;;;5107867;28;20590;-57
2022/08/14 09:53:36;;;;;;;5.43;4.40;;;28.10;1.00;;;;;;5095325;28;20036;-56
2022/08/14 09:56:03;;;;;;;;;;;28.10;1.00;;;;;;5095906;28;20039;-56
2022/08/14 09:58:40;;;;;;;4.00;3.70;;;28.10;1.00;;;;;;5113571;28;20322;-56
2022/08/14 10:01:09;;;;;;;5.70;3.95;;;28.20;1.00;;;;;;5114171;28;20114;-55
2022/08/14 10:03:36;;;;;;;6.63;4.28;;;28.20;1.00;;;;;;5113382;28;20028;-57
2022/08/14 10:06:09;;;;;;;3.83;3.53;;;28.30;1.00;;;;;;5114156;28;20512;-56
2022/08/14 10:08:50;;;;;;;3.72;3.30;;;28.50;1.00;;;;;;5080906;28;20016;-55
2022/08/14 10:11:36;;;;;;;3.58;2.63;;;28.60;1.00;;;;;;5113989;28;20022;-57
2022/08/14 10:14:16;;;;;;;6.00;3.30;;;28.80;1.00;;;;;;5112363;28;20027;-56
2022/08/14 10:16:45;;;;;;;4.63;3.10;;;28.90;1.00;;;;;;5103418;28;20035;-55
2022/08/14 10:19:13;;;;;;;3.47;2.70;;;29.00;1.00;;;;;;5113271;28;20028;-57
2022/08/14 10:21:42;;;;;;;2.95;2.75;;;29.10;1.00;;;;;;5113658;28;20186;-56
2022/08/14 10:24:23;;;;;;;2.65;1.95;;;29.20;1.00;;;;;;5113585;28;20427;-58
2022/08/14 10:26:56;;;;;;;2.80;2.28;;;29.20;1.00;;;;;;5113920;28;20027;-57
2022/08/14 10:29:33;;;;;;;3.53;3.05;;;29.30;1.00;;;;;;5111503;28;20442;-57
2022/08/14 10:32:00;;;;;;;3.60;2.80;;;29.30;1.00;;;;;;5113489;28;20377;-57
2022/08/14 10:34:31;;;;;;;5.25;2.60;;;29.20;1.00;;;;;;5112877;28;20035;-56
2022/08/14 10:37:07;;;;;;;6.68;4.50;;;29.30;1.00;;;;;;5113448;28;20028;-57
2022/08/14 10:39:35;;;;;;;5.10;4.13;;;29.20;1.00;;;;;;5112865;28;20103;-56
2022/08/14 10:42:21;;;;;;;4.25;3.95;;;29.30;1.00;;;;;;5113583;28;20035;-56
2022/08/14 10:44:48;;;;;;;7.70;6.65;;;29.40;1.00;;;;;;5112157;28;20071;-57
2022/08/14 10:47:16;;;;;;;6.05;5.50;;;29.40;1.00;;;;;;5113228;28;20076;-57
2022/08/14 10:49:55;;;;;;;5.82;5.03;;;29.50;1.00;;;;;;5110343;28;20024;-57
2022/08/14 10:52:28;;;;;;;5.85;4.88;;;29.50;1.00;;;;;;5113158;28;20481;-57
2022/08/14 10:55:08;;;;;;;5.63;5.10;;;29.60;1.00;;;;;;5112488;28;20041;-58
2022/08/14 10:57:45;;;;;;;4.80;4.32;;;29.70;1.00;;;;;;5113056;28;20069;-56
2022/08/14 11:00:14;;;;;;;8.15;5.10;;;29.80;1.00;;;;;;5106283;28;20115;-56
2022/08/14 11:02:40;;;;;;;5.95;5.00;;;29.80;1.00;;;;;;5113028;28;20098;-56
2022/08/14 11:05:13;;;;;;;5.25;4.10;;;30.00;1.00;;;;;;5112187;28;20031;-57
2022/08/14 11:07:52;;;;;;;4.18;3.72;;;30.10;1.00;;;;;;5112960;28;20453;-57
2022/08/14 11:10:18;;;;;;;4.72;3.70;;;30.10;1.00;;;;;;5106579;28;20081;-57
2022/08/14 11:12:50;;;;;;;4.55;4.25;;;30.10;1.00;;;;;;5112884;28;20127;-57
2022/08/14 11:15:18;;;;;;;3.78;3.47;;;30.10;1.00;;;;;;5111489;28;20035;-57
2022/08/14 11:17:46;;;;;;;4.90;3.70;;;30.10;1.00;;;;;;5112832;28;20033;-55
2022/08/14 11:20:13;;;;;;;3.20;3.00;;;30.30;1.00;;;;;;5111686;28;20059;-58
2022/08/14 11:22:42;;;;;;;4.60;3.13;;;30.30;1.00;;;;;;5112741;28;20477;-57
2022/08/14 11:25:12;;;;;;;2.83;2.53;;;30.30;1.00;;;;;;5111843;28;20028;-56
2022/08/14 11:27:40;;;;;;;3.50;3.20;;;30.20;1.00;;;;;;5106721;28;20027;-57
2022/08/14 11:30:09;;;;;;;2.88;2.67;;;30.40;1.00;;;;;;5111917;28;20104;-55
2022/08/14 11:32:35;;;;;;;2.53;2.33;;;30.40;1.00;;;;;;5111807;28;20159;-56
2022/08/14 11:35:04;;;;;;;2.95;2.75;;;30.40;1.00;;;;;;5112700;28;20015;-57
2022/08/14 11:37:32;;;;;;;3.33;3.13;;;30.40;1.00;;;;;;5111971;28;20565;-58
2022/08/14 11:39:59;;;;;;;3.08;2.80;;;30.50;1.00;;;;;;5112641;28;20023;-56
2022/08/14 11:42:26;;;;;;;2.72;2.35;;;30.70;1.00;;;;;;5111722;28;20023;-57
2022/08/14 11:45:03;;;;;;;3.13;2.50;;;30.90;1.00;;;;;;5110968;28;20040;-57
2022/08/14 11:47:32;;;;;;;2.80;2.60;;;31.20;1.00;;;;;;5110751;28;20035;-57
2022/08/14 11:49:58;;;;;;;2.13;2.03;;;31.40;1.00;;;;;;5112251;28;20047;-57
2022/08/14 11:52:33;;;;;;;2.45;2.25;;;31.40;1.00;;;;;;5111503;28;20430;-58
2022/08/14 11:54:59;;;;;;;2.50;2.30;;;31.40;1.00;;;;;;5112359;28;20085;-57
2022/08/14 11:57:25;;;;;;;3.35;2.42;;;31.70;1.00;;;;;;5111604;28;20358;-58
2022/08/14 12:00:05;;;;;;;2.20;2.10;;;33.30;1.00;;;;;;5112610;28;20065;-58
2022/08/14 12:02:31;;;;;;;4.13;2.22;;;34.10;1.00;;;;;;5115914;28;20026;-58
2022/08/14 12:04:57;;;;;;;3.35;2.47;;;34.20;1.00;;;;;;5116508;28;20102;-58
2022/08/14 12:07:23;;;;;;;3.20;2.90;;;34.40;1.00;;;;;;5115695;28;20031;-58
2022/08/14 12:09:52;;;;;;;2.83;2.60;;;34.30;1.00;;;;;;5114922;28;20081;-58
2022/08/14 12:12:26;;;;;;;2.58;2.38;;;34.20;1.00;;;;;;5114602;28;20035;-58
2022/08/14 12:14:56;;;;;;;3.05;2.30;;;34.60;1.00;;;;;;5116527;28;20442;-58
2022/08/14 12:17:23;;;;;;;2.25;2.15;;;33.80;1.00;;;;;;5115503;28;20484;-59
2022/08/14 12:20:00;;;;;;;2.53;2.42;;;33.80;1.00;;;;;;5115963;28;20019;-57
2022/08/14 12:22:39;;;;;;;2.67;2.47;;;33.80;1.00;;;;;;5115531;28;20047;-57
2022/08/14 12:25:08;;;;;;;4.05;2.40;;;35.00;1.00;;;;;;5116173;28;20492;-58
2022/08/14 12:27:42;;;;;;;2.65;2.30;;;35.00;1.00;;;;;;5114892;28;20134;-58
2022/08/14 12:30:11;;;;;;;2.60;2.40;;;34.90;1.00;;;;;;5115273;28;20058;-57
2022/08/14 12:32:47;;;;;;;2.50;2.30;;;34.20;1.00;;;;;;5098201;28;20023;-58
2022/08/14 12:35:13;;;;;;;2.15;2.03;;;33.50;1.00;;;;;;5104168;28;20032;-57
2022/08/14 12:37:49;;;;;;;2.70;2.50;;;33.20;1.00;;;;;;5101478;28;20080;-57
2022/08/14 12:40:17;;;;;;;3.88;2.10;;;32.80;1.00;;;;;;5101354;28;20104;-57
2022/08/14 12:42:43;;;;;;;2.50;2.40;;;32.50;1.00;;;;;;5113000;28;20020;-57
2022/08/14 12:45:11;;;;;;;2.50;2.35;;;32.40;1.00;;;;;;5103350;28;20047;-57
2022/08/14 12:47:38;;;;;;;3.78;2.53;;;32.30;1.00;;;;;;5114469;28;20055;-56
2022/08/14 12:50:05;;;;;;;3.60;2.00;;;32.10;1.00;;;;;;5115374;28;20094;-55
2022/08/14 12:52:39;;;;;;;2.63;2.42;;;32.10;1.00;;;;;;5106915;28;20024;-57
2022/08/14 12:55:16;;;;;;;2.17;1.98;;;32.20;1.00;;;;;;5115237;28;20023;-57
2022/08/14 12:57:46;;;;;;;2.08;1.98;;;32.50;1.00;;;;;;5114537;28;20107;-57
2022/08/14 13:00:22;;;;;;;3.58;2.30;;;33.10;1.00;;;;;;5115286;28;20181;-55
2022/08/14 13:02:50;;;;;;;2.20;2.10;;;34.80;1.00;;;;;;5114692;28;20039;-58
2022/08/14 13:05:21;;;;;;;2.58;2.15;;;35.10;1.00;;;;;;5115295;28;20489;-58
2022/08/14 13:07:50;;;;;;;2.65;2.17;;;34.80;1.00;;;;;;5114683;28;20397;-56
2022/08/14 13:10:17;;;;;;;2.78;2.55;;;34.80;1.00;;;;;;5114836;28;20011;-57
2022/08/14 13:12:42;;;;;;;2.53;2.42;;;35.70;1.00;;;;;;5114067;28;20107;-58
2022/08/14 13:15:13;;;;;;;2.97;2.75;;;38.00;1.00;;;;;;5114191;28;20119;-58
2022/08/14 13:17:45;;;;;;;2.78;2.58;;;39.60;1.00;;;;;;5113960;28;20039;-58
2022/08/14 13:20:12;;;;;;;3.22;3.10;;;42.20;1.00;;;;;;5114763;28;20020;-59
2022/08/14 13:22:49;;;;;;;3.20;3.00;;;43.70;1.00;;;;;;5109670;28;20028;-58